Time;durP1;ratioP1;P1;durP2;ratioP2;P2;SDS_P1;SDS_P2;PMS_P1;PMS_P2;Temp;Humidity;BMP_temperature;BMP_pressure;BME280_temperature;BME280_humidity;BME280_pressure;Samples;Min_cycle;Max_cycle;Signal;HPM_P1;HPM_P2
2021/10/26 00:00:50;;;;;;;81.87;23.83;;;;;;;-2.85;100.00;102872.64;1756747;81;20857;-82
2021/10/26 00:03:16;;;;;;;84.22;25.08;;;;;;;-2.90;100.00;102866.38;1756422;81;20939;-82
2021/10/26 00:05:42;;;;;;;76.25;23.95;;;;;;;-2.93;100.00;102863.97;1756453;81;21054;-82
2021/10/26 00:08:08;;;;;;;79.65;24.37;;;;;;;-2.94;100.00;102868.89;1756495;81;21536;-80
2021/10/26 00:10:34;;;;;;;87.78;26.37;;;;;;;-2.95;100.00;102869.00;1756404;81;20944;-82
2021/10/26 00:13:00;;;;;;;107.07;28.92;;;;;;;-2.98;100.00;102859.52;1756566;81;20934;-82
2021/10/26 00:15:26;;;;;;;102.87;28.70;;;;;;;-2.99;100.00;102866.59;1756649;81;21603;-86
2021/10/26 00:17:53;;;;;;;110.08;31.30;;;;;;;-2.98;100.00;102863.47;1756287;81;21027;-82
2021/10/26 00:20:19;;;;;;;105.07;30.82;;;;;;;-2.99;100.00;102862.63;1756089;81;21119;-82
2021/10/26 00:22:45;;;;;;;92.72;29.57;;;;;;;-3.00;100.00;102862.28;1756244;81;21050;-83
2021/10/26 00:25:11;;;;;;;108.40;32.70;;;;;;;-3.00;100.00;102860.09;1756286;81;21571;-83
2021/10/26 00:27:37;;;;;;;97.25;29.35;;;;;;;-3.05;100.00;102859.14;1756665;81;21083;-87
2021/10/26 00:30:06;;;;;;;103.17;31.65;;;;;;;-3.05;100.00;102855.18;1756573;81;21039;-82
2021/10/26 00:32:32;;;;;;;99.75;29.80;;;;;;;-3.05;100.00;102859.14;1756440;81;22204;-81
2021/10/26 00:34:58;;;;;;;103.30;31.15;;;;;;;-3.06;100.00;102856.59;1756685;81;21051;-81
2021/10/26 00:37:24;;;;;;;112.05;32.90;;;;;;;-3.07;100.00;102860.20;1756671;81;20865;-83
2021/10/26 00:39:49;;;;;;;105.12;32.10;;;;;;;-3.12;100.00;102858.38;1756834;81;22735;-82
2021/10/26 00:42:16;;;;;;;110.88;32.67;;;;;;;-3.17;100.00;102856.58;1756622;81;21026;-82
2021/10/26 00:44:42;;;;;;;103.40;32.23;;;;;;;-3.16;100.00;102860.89;1756645;81;21052;-83
2021/10/26 00:47:08;;;;;;;101.82;32.17;;;;;;;-3.18;100.00;102857.03;1756308;81;21054;-83
2021/10/26 00:49:35;;;;;;;121.37;33.78;;;;;;;-3.18;100.00;102855.71;1756790;80;21473;-82
2021/10/26 00:52:02;;;;;;;108.45;32.42;;;;;;;-3.17;100.00;102851.31;1756646;81;21023;-82
2021/10/26 00:54:29;;;;;;;127.30;32.95;;;;;;;-3.17;100.00;102849.98;1756678;81;21022;-80
2021/10/26 00:56:55;;;;;;;118.10;32.80;;;;;;;-3.16;100.00;102850.34;1756251;81;21065;-83
2021/10/26 00:59:22;;;;;;;111.03;33.42;;;;;;;-3.14;100.00;102856.35;1756048;81;21034;-82
2021/10/26 01:01:48;;;;;;;109.42;32.67;;;;;;;-3.15;100.00;102858.61;1756348;81;21667;-83
2021/10/26 01:04:14;;;;;;;104.50;33.85;;;;;;;-3.17;100.00;102856.58;1756370;81;20980;-82
2021/10/26 01:06:40;;;;;;;117.30;33.85;;;;;;;-3.18;100.00;102853.08;1756724;81;21070;-82
2021/10/26 01:09:07;;;;;;;106.83;33.15;;;;;;;-3.16;100.00;102852.98;1756651;81;21868;-88
2021/10/26 01:11:34;;;;;;;110.95;33.45;;;;;;;-3.15;100.00;102857.28;1756498;81;21019;-82
2021/10/26 01:14:03;;;;;;;119.65;32.45;;;;;;;-3.17;100.00;102863.17;1756583;81;21062;-87
2021/10/26 01:16:29;;;;;;;96.20;30.55;;;;;;;-3.18;100.00;102856.19;1738460;82;21150;-83
2021/10/26 01:18:56;;;;;;;98.55;30.65;;;;;;;-3.17;100.00;102853.95;1738370;82;21449;-82
2021/10/26 01:21:22;;;;;;;92.78;29.23;;;;;;;-3.18;100.00;102853.55;1713734;82;21000;-82
2021/10/26 01:23:48;;;;;;;97.65;31.20;;;;;;;-3.21;100.00;102852.85;1738869;82;20997;-82
2021/10/26 01:26:13;;;;;;;102.78;30.37;;;;;;;-3.22;100.00;102851.63;1738799;82;20945;-83
2021/10/26 01:28:40;;;;;;;96.20;31.23;;;;;;;-3.25;100.00;102855.33;1714119;82;20960;-82
2021/10/26 01:31:06;;;;;;;104.05;30.43;;;;;;;-3.26;100.00;102857.62;1738602;82;21059;-84
2021/10/26 01:33:33;;;;;;;95.17;31.60;;;;;;;-3.28;100.00;102860.83;1738724;82;21111;-83
2021/10/26 01:35:59;;;;;;;103.07;30.55;;;;;;;-3.28;100.00;102866.59;1738900;82;21012;-81
2021/10/26 01:38:25;;;;;;;91.28;30.72;;;;;;;-3.29;100.00;102864.91;1738688;82;20916;-82
2021/10/26 01:40:52;;;;;;;92.17;29.42;;;;;;;-3.30;100.00;102857.45;1738916;82;21075;-82
2021/10/26 01:43:19;;;;;;;97.15;29.07;;;;;;;-3.29;100.00;102863.59;1738506;82;21092;-83
2021/10/26 01:45:47;;;;;;;91.15;30.12;;;;;;;-3.29;100.00;102867.07;1738737;82;21103;-84
2021/10/26 01:48:13;;;;;;;86.28;30.10;;;;;;;-3.28;100.00;102858.20;1738238;82;21032;-83
2021/10/26 01:50:39;;;;;;;97.12;29.75;;;;;;;-3.30;100.00;102856.63;1738797;82;21070;-81
2021/10/26 01:53:06;;;;;;;86.47;28.83;;;;;;;-3.34;100.00;102857.81;1738709;82;20905;-82
2021/10/26 01:55:32;;;;;;;97.50;31.15;;;;;;;-3.38;100.00;102865.11;1738467;82;21032;-82
2021/10/26 01:57:58;;;;;;;84.15;28.32;;;;;;;-3.41;100.00;102860.06;1728376;82;21154;-81
2021/10/26 02:00:24;;;;;;;92.45;26.68;;;;;;;-3.42;100.00;102861.83;1728017;83;20950;-82
2021/10/26 02:02:50;;;;;;;70.95;24.45;;;;;;;-3.46;100.00;102859.55;1728056;83;21081;-82
2021/10/26 02:05:17;;;;;;;65.12;23.62;;;;;;;-3.50;100.00;102854.12;1728275;83;21058;-83
2021/10/26 02:07:44;;;;;;;75.57;23.62;;;;;;;-3.52;100.00;102860.00;1728157;83;21094;-84
2021/10/26 02:10:11;;;;;;;70.60;23.32;;;;;;;-3.54;100.00;102853.98;1727966;83;21862;-82
2021/10/26 02:12:37;;;;;;;73.67;23.98;;;;;;;-3.57;100.00;102855.53;1733273;81;21519;-82
2021/10/26 02:15:06;;;;;;;74.00;24.27;;;;;;;-3.58;100.00;102853.86;1756363;81;21488;-82
2021/10/26 02:17:32;;;;;;;73.57;23.75;;;;;;;-3.58;100.00;102858.64;1756255;81;21481;-82
2021/10/26 02:19:58;;;;;;;64.65;22.48;;;;;;;-3.60;100.00;102853.95;1756581;81;21016;-81
2021/10/26 02:22:25;;;;;;;74.05;23.40;;;;;;;-3.63;100.00;102860.77;1756628;81;21063;-83
2021/10/26 02:24:51;;;;;;;63.25;21.30;;;;;;;-3.64;100.00;102866.16;1756589;81;20937;-82
2021/10/26 02:27:17;;;;;;;71.22;21.65;;;;;;;-3.66;100.00;102861.81;1756210;81;21760;-87
2021/10/26 02:29:43;;;;;;;69.75;22.50;;;;;;;-3.66;100.00;102865.77;1756536;81;21505;-83
2021/10/26 02:32:09;;;;;;;65.45;23.07;;;;;;;-3.69;100.00;102864.67;1756957;81;20987;-82
2021/10/26 02:34:35;;;;;;;68.90;23.30;;;;;;;-3.70;100.00;102868.27;1756544;81;21087;-82
2021/10/26 02:37:01;;;;;;;61.25;20.92;;;;;;;-3.72;100.00;102870.16;1756519;81;22099;-83
2021/10/26 02:39:27;;;;;;;68.17;22.25;;;;;;;-3.73;100.00;102868.49;1756502;81;21019;-82
2021/10/26 02:41:54;;;;;;;63.10;22.37;;;;;;;-3.74;100.00;102865.95;1756306;81;20951;-82
2021/10/26 02:44:20;;;;;;;56.68;20.15;;;;;;;-3.74;100.00;102865.47;1756470;81;21004;-82
2021/10/26 02:46:46;;;;;;;57.50;20.77;;;;;;;-3.75;100.00;102873.02;1756700;81;21031;-84
2021/10/26 02:49:14;;;;;;;58.08;20.40;;;;;;;-3.76;100.00;102868.71;1756393;81;21828;-82
2021/10/26 02:51:40;;;;;;;57.08;20.52;;;;;;;-3.76;100.00;102875.30;1756532;81;20956;-81
2021/10/26 02:54:06;;;;;;;68.55;21.70;;;;;;;-3.76;100.00;102867.39;1756437;81;21071;-82
2021/10/26 02:56:33;;;;;;;63.65;20.97;;;;;;;-3.77;100.00;102865.69;1756994;81;21585;-82
2021/10/26 02:58:59;;;;;;;64.17;21.00;;;;;;;-3.77;100.00;102857.78;1756297;81;21162;-82
2021/10/26 03:01:25;;;;;;;62.60;21.13;;;;;;;-3.74;100.00;102862.00;1756574;81;21199;-82
2021/10/26 03:03:54;;;;;;;50.23;19.20;;;;;;;-3.79;100.00;102853.13;1756753;81;21016;-82
2021/10/26 03:06:19;;;;;;;64.95;20.52;;;;;;;-3.80;100.00;102858.01;1754036;81;20989;-82
2021/10/26 03:08:46;;;;;;;59.00;20.68;;;;;;;-3.81;100.00;102858.97;1756705;81;20888;-82
2021/10/26 03:11:12;;;;;;;53.40;20.82;;;;;;;-3.84;100.00;102854.41;1756737;81;21066;-82
2021/10/26 03:13:38;;;;;;;53.38;19.98;;;;;;;-3.84;100.00;102853.09;1756314;81;20955;-79
2021/10/26 03:16:06;;;;;;;50.48;19.02;;;;;;;-3.85;100.00;102856.65;1756824;81;20904;-82
2021/10/26 03:18:32;;;;;;;57.55;20.02;;;;;;;-3.90;100.00;102851.25;1756271;81;21485;-82
2021/10/26 03:20:59;;;;;;;68.47;21.68;;;;;;;-3.92;100.00;102848.35;1756807;81;21015;-80
2021/10/26 03:23:26;;;;;;;63.75;23.42;;;;;;;-3.94;100.00;102842.34;1756416;81;21094;-82
2021/10/26 03:25:52;;;;;;;64.75;22.65;;;;;;;-3.96;100.00;102850.84;1756696;81;21031;-82
2021/10/26 03:28:18;;;;;;;67.37;22.42;;;;;;;-3.99;100.00;102842.69;1739737;81;20928;-80
2021/10/26 03:30:44;;;;;;;63.80;23.45;;;;;;;-4.02;100.00;102844.22;1756748;81;21026;-88
2021/10/26 03:33:10;;;;;;;72.67;23.18;;;;;;;-4.05;100.00;102843.13;1756868;81;21087;-82
2021/10/26 03:35:36;;;;;;;70.60;24.12;;;;;;;-4.06;100.00;102844.53;1756816;81;21180;-82
2021/10/26 03:38:05;;;;;;;69.15;23.67;;;;;;;-4.09;100.00;102841.64;1756856;81;21042;-81
2021/10/26 03:40:31;;;;;;;59.35;21.05;;;;;;;-4.12;100.00;102844.48;1756535;81;21023;-82
2021/10/26 03:42:57;;;;;;;61.58;22.77;;;;;;;-4.14;100.00;102847.23;1756645;81;21011;-83
2021/10/26 03:45:23;;;;;;;65.03;22.95;;;;;;;-4.15;100.00;102841.62;1756769;81;21054;-82
2021/10/26 03:47:49;;;;;;;67.05;24.20;;;;;;;-4.17;100.00;102838.25;1756488;81;21856;-81
2021/10/26 03:50:17;;;;;;;71.57;23.75;;;;;;;-4.16;100.00;102843.03;1756818;81;20955;-82
2021/10/26 03:52:44;;;;;;;64.50;24.18;;;;;;;-4.17;100.00;102848.77;1756329;81;21507;-86
2021/10/26 03:55:11;;;;;;;73.90;24.60;;;;;;;-4.18;100.00;102847.07;1756926;81;21062;-82
2021/10/26 03:57:38;;;;;;;78.87;26.70;;;;;;;-4.18;100.00;102847.07;1748895;81;20913;-87
2021/10/26 04:00:07;;;;;;;77.00;25.97;;;;;;;-4.18;100.00;102844.92;1743355;82;21111;-82
2021/10/26 04:02:38;;;;;;;85.15;28.15;;;;;;;-4.22;100.00;102845.61;1743270;82;21013;-81
2021/10/26 04:07:30;;;;;;;82.85;29.05;;;;;;;-4.26;100.00;102845.47;1664999;85;20987;-81
2021/10/26 04:10:06;;;;;;;83.12;28.55;;;;;;;-4.26;100.00;102844.16;1665701;85;21602;-83
2021/10/26 04:12:29;;;;;;;91.28;30.00;;;;;;;-4.27;100.00;102847.72;1661718;85;21057;-82
2021/10/26 04:14:58;;;;;;;95.77;30.80;;;;;;;-4.30;100.00;102850.56;1665273;85;20964;-82
2021/10/26 04:17:26;;;;;;;95.72;31.30;;;;;;;-4.34;100.00;102848.62;1665646;85;21106;-82
2021/10/26 04:19:54;;;;;;;95.77;33.18;;;;;;;-4.34;100.00;102851.25;1665436;85;21085;-81
2021/10/26 04:22:21;;;;;;;98.65;31.80;;;;;;;-4.34;100.00;102851.73;1665545;85;21097;-82
2021/10/26 04:24:49;;;;;;;97.30;33.60;;;;;;;-4.33;100.00;102854.72;1665318;85;21819;-85
2021/10/26 04:27:17;;;;;;;102.78;33.38;;;;;;;-4.35;100.00;102857.48;1642404;86;21046;-82
2021/10/26 04:29:43;;;;;;;109.90;34.75;;;;;;;-4.38;100.00;102851.11;1665378;85;21145;-85
2021/10/26 04:32:10;;;;;;;98.12;34.73;;;;;;;-4.37;100.00;102846.69;1665310;85;21577;-80
2021/10/26 04:34:39;;;;;;;106.25;34.80;;;;;;;-4.35;100.00;102846.11;1665474;85;21576;-82
2021/10/26 04:37:06;;;;;;;120.90;35.78;;;;;;;-4.33;100.00;102849.45;1665283;85;21116;-81
2021/10/26 04:39:34;;;;;;;106.27;34.33;;;;;;;-4.30;100.00;102850.56;1665316;85;21065;-82
2021/10/26 04:42:02;;;;;;;108.17;35.28;;;;;;;-4.24;100.00;102844.03;1664873;85;21006;-81
2021/10/26 04:44:29;;;;;;;109.70;36.28;;;;;;;-4.17;100.00;102846.63;1665247;85;21677;-81
2021/10/26 04:46:56;;;;;;;120.95;38.30;;;;;;;-4.10;100.00;102853.13;1665015;85;21144;-83
2021/10/26 04:49:22;;;;;;;110.40;36.58;;;;;;;-4.02;100.00;102850.80;1665424;85;21059;-78
2021/10/26 04:51:48;;;;;;;116.30;35.35;;;;;;;-3.95;100.00;102845.45;1665522;85;21049;-79
2021/10/26 04:54:14;;;;;;;108.45;36.28;;;;;;;-3.85;100.00;102851.38;1661779;85;21071;-83
2021/10/26 04:56:40;;;;;;;115.05;35.17;;;;;;;-3.78;100.00;102849.53;1665570;85;21065;-83
2021/10/26 04:59:06;;;;;;;110.70;34.50;;;;;;;-3.69;100.00;102847.55;1675318;85;21514;-82
2021/10/26 05:01:32;;;;;;;112.12;35.25;;;;;;;-3.53;100.00;102842.48;1674880;85;21079;-82
2021/10/26 05:03:58;;;;;;;111.85;35.33;;;;;;;-3.33;100.00;102844.50;1694728;82;20865;-82
2021/10/26 05:06:24;;;;;;;130.55;37.50;;;;;;;-3.17;100.00;102846.03;1748647;82;21528;-82
2021/10/26 05:08:52;;;;;;;119.08;36.45;;;;;;;-2.94;100.00;102843.84;1731413;82;21075;-81
2021/10/26 05:11:19;;;;;;;111.77;36.15;;;;;;;-2.57;100.00;102844.98;1748474;81;21454;-80
2021/10/26 05:13:46;;;;;;;117.25;35.65;;;;;;;-2.40;100.00;102848.98;1748651;82;21504;-82
2021/10/26 05:16:12;;;;;;;113.70;36.20;;;;;;;-2.18;100.00;102848.13;1749030;82;20984;-82
2021/10/26 05:18:41;;;;;;;106.75;35.95;;;;;;;-2.04;100.00;102842.61;1748589;82;21016;-81
2021/10/26 05:21:09;;;;;;;118.95;35.40;;;;;;;-1.98;100.00;102842.61;1747922;82;21141;-82
2021/10/26 05:23:34;;;;;;;119.45;36.03;;;;;;;-1.89;100.00;102847.99;1746026;82;20996;-82
2021/10/26 05:26:00;;;;;;;122.53;36.33;;;;;;;-1.67;100.00;102847.62;1749236;82;21320;-81
2021/10/26 05:28:26;;;;;;;108.92;36.63;;;;;;;-1.50;100.00;102848.88;1748966;82;20923;-81
2021/10/26 05:30:52;;;;;;;130.07;38.38;;;;;;;-1.44;100.00;102847.92;1736221;82;21086;-81
2021/10/26 05:33:18;;;;;;;130.78;37.63;;;;;;;-1.38;100.00;102849.23;1747878;82;21032;-83
2021/10/26 05:35:45;;;;;;;120.53;37.05;;;;;;;-1.14;100.00;102849.02;1748718;82;21046;-84
2021/10/26 05:38:11;;;;;;;112.30;34.88;;;;;;;-0.46;100.00;102848.14;1748481;82;21066;-83
2021/10/26 05:40:37;;;;;;;114.00;37.95;;;;;;;1.32;100.00;102845.50;1742210;82;21049;-87
2021/10/26 05:43:03;;;;;;;114.97;36.68;;;;;;;3.19;100.00;102842.81;1744302;82;21474;-84
2021/10/26 05:45:29;;;;;;;92.02;34.23;;;;;;;4.96;100.00;102843.81;1748391;81;21043;-81
2021/10/26 05:47:55;;;;;;;100.42;35.75;;;;;;;6.63;100.00;102846.16;1748534;82;20993;-86
2021/10/26 05:50:23;;;;;;;103.07;37.90;;;;;;;8.01;100.00;102853.91;1744939;82;21754;-84
2021/10/26 05:52:49;;;;;;;102.20;36.45;;;;;;;9.34;100.00;102850.74;1748294;82;21087;-84
2021/10/26 05:55:15;;;;;;;102.05;35.08;;;;;;;10.71;100.00;102853.15;1748421;82;20905;-85
2021/10/26 05:57:41;;;;;;;95.87;35.08;;;;;;;11.59;79.66;102852.45;1733149;81;21009;-84
2021/10/26 06:00:08;;;;;;;85.70;32.80;;;;;;;12.12;65.57;102854.16;1753086;81;20893;-87
2021/10/26 06:02:36;;;;;;;92.37;35.15;;;;;;;12.66;59.41;102860.44;1753132;80;21157;-85
2021/10/26 06:05:03;;;;;;;91.80;34.80;;;;;;;13.43;55.89;102849.45;1753152;80;21024;-85
2021/10/26 06:07:32;;;;;;;87.05;34.20;;;;;;;13.77;51.26;102850.77;1752968;81;21027;-86
2021/10/26 06:09:58;;;;;;;88.00;34.33;;;;;;;14.54;50.34;102848.88;1749345;81;21066;-83
2021/10/26 06:12:29;;;;;;;93.52;36.23;;;;;;;14.84;46.53;102854.80;1748255;81;20989;-87
2021/10/26 06:14:52;;;;;;;96.02;35.80;;;;;;;15.43;49.21;102860.58;1753503;81;21025;-85
2021/10/26 06:17:18;;;;;;;85.70;34.73;;;;;;;16.53;46.43;102851.16;1753179;81;20952;-86
2021/10/26 06:19:44;;;;;;;92.70;35.38;;;;;;;17.32;42.58;102851.69;1753377;80;20969;-86
2021/10/26 06:22:09;;;;;;;99.10;34.95;;;;;;;17.32;40.59;102854.41;1753118;80;20877;-84
2021/10/26 06:24:35;;;;;;;85.90;34.92;;;;;;;17.56;41.13;102856.39;1753423;80;20964;-85
2021/10/26 06:27:01;;;;;;;83.90;33.88;;;;;;;18.65;39.36;102849.23;1753556;81;21016;-85
2021/10/26 06:29:27;;;;;;;86.57;33.73;;;;;;;18.66;37.75;102846.26;1753563;81;21152;-92
2021/10/26 06:31:53;;;;;;;83.67;35.28;;;;;;;18.79;37.04;102846.39;1734636;81;21560;-85
2021/10/26 06:34:19;;;;;;;86.60;33.55;;;;;;;19.43;36.91;102849.06;1734595;81;20861;-85
2021/10/26 06:36:46;;;;;;;69.03;33.73;;;;;;;20.12;35.95;102848.05;1753259;81;20926;-87
2021/10/26 06:39:12;;;;;;;71.85;32.83;;;;;;;20.62;33.63;102846.54;1729603;81;21161;-86
2021/10/26 06:41:37;;;;;;;75.40;33.58;;;;;;;20.69;33.04;102851.74;1729028;81;20924;-87
2021/10/26 06:44:04;;;;;;;73.00;33.55;;;;;;;20.53;31.92;102854.17;1691151;81;20916;-88
2021/10/26 06:46:30;;;;;;;72.22;32.95;;;;;;;20.56;33.30;102849.52;1725404;81;21032;-87
2021/10/26 06:48:56;;;;;;;72.15;30.17;;;;;;;20.60;31.13;102844.61;1741668;81;21110;-87
2021/10/26 06:51:22;;;;;;;76.45;32.60;;;;;;;20.60;31.74;102846.53;1738148;81;21222;-88
2021/10/26 06:53:48;;;;;;;70.22;32.67;;;;;;;21.48;31.76;102846.77;1737863;81;21062;-90
2021/10/26 06:56:16;;;;;;;70.75;32.48;;;;;;;22.48;31.02;102840.83;1729135;81;20893;-88
2021/10/26 06:58:42;;;;;;;64.10;31.27;;;;;;;23.30;30.93;102842.34;1713293;81;21034;-88
2021/10/26 07:01:09;;;;;;;68.62;32.38;;;;;;;23.83;29.61;102842.30;1717005;81;21488;-87
2021/10/26 07:03:36;;;;;;;63.52;31.35;;;;;;;24.41;27.45;102830.17;1760301;80;21873;-90
2021/10/26 07:06:04;;;;;;;69.53;32.58;;;;;;;24.13;28.12;102835.55;1720660;83;21039;-88
2021/10/26 07:08:30;;;;;;;73.97;32.13;;;;;;;24.77;28.29;102831.02;1736473;80;21654;-87
2021/10/26 07:10:57;;;;;;;64.87;30.27;;;;;;;25.41;26.65;102834.00;1739904;80;21058;-90
2021/10/26 07:15:59;;;;;;;59.03;29.75;;;;;;;26.94;26.36;102826.39;1666733;85;21619;-90
2021/10/26 07:18:25;;;;;;;67.72;31.65;;;;;;;27.47;25.34;102826.89;1571979;90;21094;-90
2021/10/26 07:20:51;;;;;;;57.53;28.25;;;;;;;27.75;25.09;102828.05;1585795;89;21100;-91
2021/10/26 07:23:17;;;;;;;56.58;27.15;;;;;;;28.40;24.45;102829.09;1579576;89;21766;-93
2021/10/26 07:25:44;;;;;;;57.70;26.85;;;;;;;29.02;23.35;102828.70;1561550;90;22257;-90
2021/10/26 07:28:11;;;;;;;51.70;25.60;;;;;;;29.16;22.42;102831.27;1570072;90;21171;-90
2021/10/26 07:30:39;;;;;;;58.02;24.80;;;;;;;29.27;22.36;102825.59;1567981;91;21523;-91
2021/10/26 07:33:08;;;;;;;46.60;21.55;;;;;;;29.70;21.52;102824.55;1568253;91;21477;-89
2021/10/26 07:38:04;;;;;;;54.00;22.75;;;;;;;30.89;21.33;102824.22;1498231;93;21209;-89
2021/10/26 07:40:30;;;;;;;47.73;23.70;;;;;;;31.21;19.60;102819.16;1491444;94;21159;-90
2021/10/26 07:42:56;;;;;;;56.55;26.60;;;;;;;29.84;19.36;102821.52;1494040;94;21193;-90
2021/10/26 07:45:22;;;;;;;46.95;20.82;;;;;;;29.53;19.88;102814.89;1494767;94;20963;-88
2021/10/26 07:47:48;;;;;;;40.17;19.77;;;;;;;29.96;20.60;102820.78;1504674;93;20956;-87
2021/10/26 07:50:14;;;;;;;40.20;18.75;;;;;;;30.64;19.24;102815.77;1505497;93;21218;-90
2021/10/26 07:52:41;;;;;;;39.80;18.23;;;;;;;30.62;19.63;102821.44;1505502;94;21608;-87
2021/10/26 07:55:09;;;;;;;37.53;18.70;;;;;;;30.57;18.33;102818.31;1499337;93;21119;-90
2021/10/26 07:57:37;;;;;;;29.95;15.05;;;;;;;30.66;18.76;102819.61;1497028;94;21180;-88
2021/10/26 08:00:06;;;;;;;24.75;13.13;;;;;;;31.09;18.24;102816.36;1484815;95;21119;-92
2021/10/26 08:02:33;;;;;;;28.07;13.88;;;;;;;31.02;18.75;102813.32;1483404;96;21021;-87
2021/10/26 08:05:00;;;;;;;26.15;14.47;;;;;;;31.11;18.32;102818.20;1483883;95;21583;-88
2021/10/26 08:07:26;;;;;;;30.32;14.53;;;;;;;31.35;18.14;102809.64;1486648;95;21122;-87
2021/10/26 08:09:55;;;;;;;28.07;14.53;;;;;;;31.76;17.98;102807.16;1486959;94;21077;-88
2021/10/26 08:12:24;;;;;;;23.27;12.65;;;;;;;32.20;17.91;102805.08;1484493;95;21077;-85
2021/10/26 08:14:53;;;;;;;25.75;12.58;;;;;;;32.33;17.26;102807.47;1484801;94;21471;-87
2021/10/26 08:17:19;;;;;;;29.70;14.30;;;;;;;31.80;16.88;102803.09;1468575;95;21694;-91
2021/10/26 08:19:47;;;;;;;27.82;12.65;;;;;;;31.80;17.08;102798.92;1497931;94;21551;-89
2021/10/26 08:22:18;;;;;;;24.10;12.55;;;;;;;31.84;16.78;102792.27;1479616;94;21632;-91
2021/10/26 08:24:47;;;;;;;19.62;9.10;;;;;;;31.90;16.65;102802.03;1464304;97;21299;-91
2021/10/26 08:27:15;;;;;;;20.50;8.68;;;;;;;31.15;15.85;102802.44;1468394;94;21196;-90
2021/10/26 08:29:52;;;;;;;19.07;8.63;;;;;;;28.77;16.90;102787.36;1527721;91;21589;-90
2021/10/26 08:35:18;;;;;;;14.93;7.15;;;;;;;24.00;18.65;102792.20;1601949;86;21518;-89
2021/10/26 08:37:42;;;;;;;16.12;7.05;;;;;;;21.93;20.27;102810.63;1643927;86;21074;-88
2021/10/26 08:40:09;;;;;;;27.93;11.03;;;;;;;20.33;21.74;102802.37;1634359;86;21117;-87
2021/10/26 08:42:36;;;;;;;21.82;8.95;;;;;;;19.16;22.81;102801.88;1636525;86;22117;-90
2021/10/26 08:45:04;;;;;;;14.68;6.72;;;;;;;18.07;23.60;102804.72;1634534;86;21518;-86
2021/10/26 08:47:30;;;;;;;14.15;5.40;;;;;;;16.97;25.06;102807.32;1645628;86;20966;-86
2021/10/26 08:49:57;;;;;;;15.10;6.08;;;;;;;16.16;26.29;102800.42;1653349;86;21614;-84
2021/10/26 08:52:27;;;;;;;22.67;8.15;;;;;;;15.39;26.59;102788.77;1639478;86;21144;-85
2021/10/26 08:54:54;;;;;;;24.25;9.30;;;;;;;14.78;27.81;102796.84;1631739;87;21145;-85
2021/10/26 08:57:21;;;;;;;21.40;8.25;;;;;;;14.23;28.65;102800.54;1632260;87;21054;-84
2021/10/26 08:59:52;;;;;;;25.37;7.40;;;;;;;13.82;29.73;102798.08;1637779;87;21081;-82
2021/10/26 09:02:17;;;;;;;20.65;7.50;;;;;;;13.53;29.93;102789.33;1647809;85;21114;-87
2021/10/26 09:04:45;;;;;;;25.37;7.53;;;;;;;13.07;30.12;102791.44;1652140;86;20876;-85
2021/10/26 09:07:19;;;;;;;19.75;5.95;;;;;;;12.69;30.49;102788.31;1651663;86;21868;-86
2021/10/26 09:09:45;;;;;;;15.63;6.00;;;;;;;12.50;31.08;102787.95;1651926;86;21050;-86
2021/10/26 09:17:44;;;;;;;7.97;3.10;;;;;;;11.83;31.61;102784.20;1669375;83;21752;-84
2021/10/26 09:20:14;;;;;;;9.65;3.72;;;;;;;11.75;31.79;102774.98;1666838;84;21947;-84
2021/10/26 09:25:20;;;;;;;12.88;4.45;;;;;;;11.56;32.39;102774.55;1582009;90;21561;-85
2021/10/26 09:27:49;;;;;;;7.50;3.42;;;;;;;11.52;32.64;102770.60;1568810;90;21109;-84
2021/10/26 09:30:22;;;;;;;9.90;3.30;;;;;;;11.44;32.89;102773.03;1572065;89;21085;-82
2021/10/26 09:32:50;;;;;;;8.60;3.22;;;;;;;11.37;32.72;102765.45;1584796;89;22135;-85
2021/10/26 09:35:19;;;;;;;10.98;4.08;;;;;;;11.25;32.95;102757.17;1573909;89;21045;-86
2021/10/26 09:40:19;;;;;;;18.87;6.60;;;;;;;11.00;33.78;102750.77;1549496;91;21072;-85
2021/10/26 09:42:53;;;;;;;22.32;7.35;;;;;;;10.91;33.79;102747.45;1541719;90;21094;-86
2021/10/26 09:45:31;;;;;;;18.12;6.87;;;;;;;10.85;34.24;102745.59;1552879;90;21210;-85
2021/10/26 09:48:07;;;;;;;24.35;7.12;;;;;;;10.75;34.34;102743.32;1562243;90;21060;-86
2021/10/26 09:50:34;;;;;;;22.22;7.22;;;;;;;10.58;34.75;102754.20;1564299;90;21500;-87
2021/10/26 09:53:10;;;;;;;17.85;6.50;;;;;;;10.42;35.57;102748.19;1560128;90;21008;-86
2021/10/26 09:55:40;;;;;;;18.67;6.55;;;;;;;10.39;35.20;102740.52;1517441;92;21071;-86
2021/10/26 09:58:15;;;;;;;10.78;3.47;;;;;;;10.37;35.41;102738.53;1522782;93;21944;-85
2021/10/26 10:00:46;;;;;;;16.12;5.70;;;;;;;10.35;35.73;102731.67;1505024;95;21560;-86
2021/10/26 10:03:18;;;;;;;8.88;3.92;;;;;;;10.41;35.16;102732.20;1478627;96;21273;-86
2021/10/26 10:05:59;;;;;;;12.47;3.85;;;;;;;10.46;35.00;102729.73;1477185;97;21109;-85
2021/10/26 10:08:39;;;;;;;9.15;3.83;;;;;;;10.42;34.83;102723.92;1475087;96;21326;-86
2021/10/26 10:11:19;;;;;;;12.60;4.65;;;;;;;10.37;35.05;102726.40;1477191;97;21224;-87
2021/10/26 10:13:47;;;;;;;16.70;5.20;;;;;;;10.39;35.89;102723.52;1476864;96;21112;-87
2021/10/26 10:16:20;;;;;;;15.83;5.42;;;;;;;10.34;35.83;102718.72;1477311;97;21105;-87
2021/10/26 10:18:53;;;;;;;22.77;7.42;;;;;;;10.32;35.84;102716.75;1474943;97;21665;-86
2021/10/26 10:21:25;;;;;;;8.30;3.55;;;;;;;10.33;36.23;102715.73;1486354;91;21148;-86
2021/10/26 10:23:54;;;;;;;17.75;5.42;;;;;;;10.32;35.75;102718.62;1553600;91;21095;-87
2021/10/26 10:26:27;;;;;;;10.32;3.62;;;;;;;10.30;35.31;102708.06;1562248;91;21055;-89
2021/10/26 10:28:55;;;;;;;14.50;5.13;;;;;;;10.34;35.39;102698.52;1561217;90;21116;-87
2021/10/26 10:31:26;;;;;;;12.63;4.50;;;;;;;10.36;35.43;102699.67;1544375;91;21042;-87
2021/10/26 10:34:00;;;;;;;9.58;3.55;;;;;;;10.38;35.91;102697.58;1562499;90;21034;-88
2021/10/26 10:36:27;;;;;;;10.93;3.80;;;;;;;10.38;35.38;102698.43;1562396;91;21199;-87
2021/10/26 10:39:05;;;;;;;10.58;3.83;;;;;;;10.41;35.54;102683.69;1567794;91;21042;-87
2021/10/26 10:41:37;;;;;;;16.65;5.80;;;;;;;10.41;35.58;102685.03;1569936;90;21135;-86
2021/10/26 10:44:08;;;;;;;14.20;4.95;;;;;;;10.43;35.77;102681.63;1588535;89;21164;-87
2021/10/26 10:46:45;;;;;;;48.50;12.30;;;;;;;10.49;36.08;102682.14;1541494;91;21061;-92
2021/10/26 10:49:27;;;;;;;19.02;6.45;;;;;;;10.49;35.58;102671.88;1551573;92;21256;-86
2021/10/26 10:52:15;;;;;;;13.22;4.47;;;;;;;10.45;35.46;102670.13;1563074;89;21102;-90
2021/10/26 10:54:57;;;;;;;13.15;4.87;;;;;;;10.42;35.07;102662.45;1540124;89;21149;-89
2021/10/26 10:57:35;;;;;;;10.35;4.55;;;;;;;10.43;35.27;102665.45;1536934;92;21072;-89
2021/10/26 11:00:11;;;;;;;11.28;4.33;;;;;;;10.40;35.68;102662.65;1498080;93;21169;-88
2021/10/26 11:02:58;;;;;;;15.23;5.12;;;;;;;10.41;35.57;102652.69;1523295;92;21242;-92
2021/10/26 11:05:38;;;;;;;15.15;4.17;;;;;;;10.42;36.18;102655.72;1482889;96;21109;-91
2021/10/26 11:08:38;;;;;;;12.40;5.50;;;;;;;10.44;36.03;102647.73;1482829;96;21747;-90
2021/10/26 11:11:05;;;;;;;10.75;4.50;;;;;;;10.50;35.98;102651.47;1483064;96;21173;-91
2021/10/26 11:13:35;;;;;;;14.43;5.03;;;;;;;10.46;35.37;102645.64;1482758;96;21774;-91
2021/10/26 11:16:08;;;;;;;17.95;4.50;;;;;;;10.43;35.43;102640.67;1483102;96;21100;-90
2021/10/26 11:18:45;;;;;;;11.48;4.33;;;;;;;10.41;35.64;102640.06;1483059;96;21129;-90
2021/10/26 11:21:25;;;;;;;8.53;3.40;;;;;;;10.43;35.90;102639.31;1483051;94;21212;-91
2021/10/26 11:24:02;;;;;;;9.73;4.03;;;;;;;10.45;36.03;102636.43;1483204;96;21479;-91
2021/10/26 11:26:38;;;;;;;11.93;4.37;;;;;;;10.46;36.05;102629.98;1482059;96;21092;-92
2021/10/26 11:29:08;;;;;;;11.75;4.80;;;;;;;10.46;36.15;102632.69;1482440;96;21205;-89
2021/10/26 11:31:52;;;;;;;11.28;4.75;;;;;;;10.49;36.00;102627.40;1454338;98;21220;-88